sensor_id;sensor_type;location;lat;lon;timestamp;temperature;humidity
17146;DHT22;8688;54.444;18.444;2023-07-13T00:01:16;14.00;99.90
17146;DHT22;8688;54.444;18.444;2023-07-13T00:03:44;14.00;99.90
17146;DHT22;8688;54.444;18.444;2023-07-13T00:06:12;14.00;99.90
17146;DHT22;8688;54.444;18.444;2023-07-13T00:08:39;14.00;99.90
17146;DHT22;8688;54.444;18.444;2023-07-13T00:11:07;14.00;99.90
17146;DHT22;8688;54.444;18.444;2023-07-13T00:13:36;14.00;99.90
17146;DHT22;8688;54.444;18.444;2023-07-13T00:16:07;14.00;99.90
17146;DHT22;8688;54.444;18.444;2023-07-13T00:18:35;14.00;99.90
17146;DHT22;8688;54.444;18.444;2023-07-13T00:21:03;14.00;99.90
17146;DHT22;8688;54.444;18.444;2023-07-13T00:23:32;14.00;99.90
17146;DHT22;8688;54.444;18.444;2023-07-13T00:25:59;14.00;99.90
17146;DHT22;8688;54.444;18.444;2023-07-13T00:28:27;14.00;99.90
17146;DHT22;8688;54.444;18.444;2023-07-13T00:30:55;14.00;99.90
17146;DHT22;8688;54.444;18.444;2023-07-13T00:33:24;14.00;99.90
17146;DHT22;8688;54.444;18.444;2023-07-13T00:35:53;14.00;99.90
17146;DHT22;8688;54.444;18.444;2023-07-13T00:38:21;13.90;99.90
17146;DHT22;8688;54.444;18.444;2023-07-13T00:40:49;13.90;99.90
17146;DHT22;8688;54.444;18.444;2023-07-13T00:43:18;13.90;99.90
17146;DHT22;8688;54.444;18.444;2023-07-13T00:46:15;13.90;99.90
17146;DHT22;8688;54.444;18.444;2023-07-13T00:48:46;13.90;99.90
17146;DHT22;8688;54.444;18.444;2023-07-13T00:51:17;13.80;99.90
17146;DHT22;8688;54.444;18.444;2023-07-13T00:53:45;13.80;99.90
17146;DHT22;8688;54.444;18.444;2023-07-13T00:56:13;13.90;99.90
17146;DHT22;8688;54.444;18.444;2023-07-13T00:58:40;13.80;99.90
17146;DHT22;8688;54.444;18.444;2023-07-13T01:01:08;13.90;99.90
17146;DHT22;8688;54.444;18.444;2023-07-13T01:03:36;13.80;99.90
17146;DHT22;8688;54.444;18.444;2023-07-13T01:06:05;13.80;99.90
17146;DHT22;8688;54.444;18.444;2023-07-13T01:08:33;13.80;99.90
17146;DHT22;8688;54.444;18.444;2023-07-13T01:11:00;13.80;99.90
17146;DHT22;8688;54.444;18.444;2023-07-13T01:13:28;13.80;99.90
17146;DHT22;8688;54.444;18.444;2023-07-13T01:15:57;13.70;99.90
17146;DHT22;8688;54.444;18.444;2023-07-13T01:18:27;13.70;99.90
17146;DHT22;8688;54.444;18.444;2023-07-13T01:20:58;13.60;99.90
17146;DHT22;8688;54.444;18.444;2023-07-13T01:23:26;13.60;99.90
17146;DHT22;8688;54.444;18.444;2023-07-13T01:25:55;13.70;99.90
17146;DHT22;8688;54.444;18.444;2023-07-13T01:28:24;13.70;99.90
17146;DHT22;8688;54.444;18.444;2023-07-13T01:30:53;13.70;99.90
17146;DHT22;8688;54.444;18.444;2023-07-13T01:33:21;13.70;99.90
17146;DHT22;8688;54.444;18.444;2023-07-13T01:35:48;13.70;99.90
17146;DHT22;8688;54.444;18.444;2023-07-13T01:38:19;13.70;99.90
17146;DHT22;8688;54.444;18.444;2023-07-13T01:40:47;13.80;99.90
17146;DHT22;8688;54.444;18.444;2023-07-13T01:43:14;13.80;99.90
17146;DHT22;8688;54.444;18.444;2023-07-13T01:45:42;13.90;99.90
17146;DHT22;8688;54.444;18.444;2023-07-13T01:48:10;13.90;99.90
17146;DHT22;8688;54.444;18.444;2023-07-13T01:50:38;13.90;99.90
17146;DHT22;8688;54.444;18.444;2023-07-13T01:53:06;13.90;99.90
17146;DHT22;8688;54.444;18.444;2023-07-13T01:55:35;13.90;99.90
17146;DHT22;8688;54.444;18.444;2023-07-13T01:58:03;13.90;99.90
17146;DHT22;8688;54.444;18.444;2023-07-13T02:00:31;13.90;99.90
17146;DHT22;8688;54.444;18.444;2023-07-13T02:02:58;14.00;99.90
17146;DHT22;8688;54.444;18.444;2023-07-13T02:05:26;13.90;99.90
17146;DHT22;8688;54.444;18.444;2023-07-13T02:07:53;13.90;99.90
17146;DHT22;8688;54.444;18.444;2023-07-13T02:10:21;13.90;99.90
17146;DHT22;8688;54.444;18.444;2023-07-13T02:12:51;13.90;99.90
17146;DHT22;8688;54.444;18.444;2023-07-13T02:15:18;13.90;99.90
17146;DHT22;8688;54.444;18.444;2023-07-13T02:17:46;13.90;99.90
17146;DHT22;8688;54.444;18.444;2023-07-13T02:20:14;13.80;99.90
17146;DHT22;8688;54.444;18.444;2023-07-13T02:22:41;13.90;99.90
17146;DHT22;8688;54.444;18.444;2023-07-13T02:25:09;13.90;99.90
17146;DHT22;8688;54.444;18.444;2023-07-13T02:27:36;13.90;99.90
17146;DHT22;8688;54.444;18.444;2023-07-13T02:30:07;13.90;99.90
17146;DHT22;8688;54.444;18.444;2023-07-13T02:32:35;13.90;99.90
17146;DHT22;8688;54.444;18.444;2023-07-13T02:35:02;13.90;99.90
17146;DHT22;8688;54.444;18.444;2023-07-13T02:37:30;13.90;99.90
17146;DHT22;8688;54.444;18.444;2023-07-13T02:39:57;13.90;99.90
17146;DHT22;8688;54.444;18.444;2023-07-13T02:42:25;13.90;99.90
17146;DHT22;8688;54.444;18.444;2023-07-13T02:44:52;13.90;99.90
17146;DHT22;8688;54.444;18.444;2023-07-13T02:47:21;13.90;99.90
17146;DHT22;8688;54.444;18.444;2023-07-13T02:49:49;13.90;99.90
17146;DHT22;8688;54.444;18.444;2023-07-13T02:52:16;13.90;99.90
17146;DHT22;8688;54.444;18.444;2023-07-13T02:54:44;13.90;99.90
17146;DHT22;8688;54.444;18.444;2023-07-13T02:57:11;13.90;99.90
17146;DHT22;8688;54.444;18.444;2023-07-13T02:59:39;14.00;99.90
17146;DHT22;8688;54.444;18.444;2023-07-13T03:02:06;14.00;99.90
17146;DHT22;8688;54.444;18.444;2023-07-13T03:04:35;14.00;99.90
17146;DHT22;8688;54.444;18.444;2023-07-13T03:07:03;14.00;99.90
17146;DHT22;8688;54.444;18.444;2023-07-13T03:09:32;14.00;99.90
17146;DHT22;8688;54.444;18.444;2023-07-13T03:12:00;14.00;99.90
17146;DHT22;8688;54.444;18.444;2023-07-13T03:14:28;14.10;99.90
17146;DHT22;8688;54.444;18.444;2023-07-13T03:16:56;14.10;99.90
17146;DHT22;8688;54.444;18.444;2023-07-13T03:19:23;14.10;99.90
17146;DHT22;8688;54.444;18.444;2023-07-13T03:21:52;14.20;99.90
17146;DHT22;8688;54.444;18.444;2023-07-13T03:24:20;14.20;99.90
17146;DHT22;8688;54.444;18.444;2023-07-13T03:26:49;14.30;99.90
17146;DHT22;8688;54.444;18.444;2023-07-13T03:29:16;14.30;99.90
17146;DHT22;8688;54.444;18.444;2023-07-13T03:31:44;14.30;99.90
17146;DHT22;8688;54.444;18.444;2023-07-13T03:34:11;14.40;99.90
17146;DHT22;8688;54.444;18.444;2023-07-13T03:36:39;14.40;99.90
17146;DHT22;8688;54.444;18.444;2023-07-13T03:39:08;14.40;99.90
17146;DHT22;8688;54.444;18.444;2023-07-13T03:41:36;14.40;99.90
17146;DHT22;8688;54.444;18.444;2023-07-13T03:44:04;14.40;99.90
17146;DHT22;8688;54.444;18.444;2023-07-13T03:46:32;14.50;99.90
17146;DHT22;8688;54.444;18.444;2023-07-13T03:49:00;14.60;99.90
17146;DHT22;8688;54.444;18.444;2023-07-13T03:51:28;14.60;99.90
17146;DHT22;8688;54.444;18.444;2023-07-13T03:53:56;14.60;99.90
17146;DHT22;8688;54.444;18.444;2023-07-13T03:56:25;14.70;99.90
17146;DHT22;8688;54.444;18.444;2023-07-13T03:58:53;14.80;99.90
17146;DHT22;8688;54.444;18.444;2023-07-13T04:01:22;14.90;99.90
17146;DHT22;8688;54.444;18.444;2023-07-13T04:03:50;14.90;99.90
17146;DHT22;8688;54.444;18.444;2023-07-13T04:06:20;15.00;99.90
17146;DHT22;8688;54.444;18.444;2023-07-13T04:08:49;15.10;99.90
17146;DHT22;8688;54.444;18.444;2023-07-13T04:11:17;15.20;99.90
17146;DHT22;8688;54.444;18.444;2023-07-13T04:13:47;15.30;99.90
17146;DHT22;8688;54.444;18.444;2023-07-13T04:16:15;15.40;99.90
17146;DHT22;8688;54.444;18.444;2023-07-13T04:18:44;15.50;99.90
17146;DHT22;8688;54.444;18.444;2023-07-13T04:21:12;15.60;99.90
17146;DHT22;8688;54.444;18.444;2023-07-13T04:23:40;15.70;99.90
17146;DHT22;8688;54.444;18.444;2023-07-13T04:26:08;15.80;99.90
17146;DHT22;8688;54.444;18.444;2023-07-13T04:28:35;15.90;99.90
17146;DHT22;8688;54.444;18.444;2023-07-13T04:31:04;15.90;99.90
17146;DHT22;8688;54.444;18.444;2023-07-13T04:33:32;16.00;99.90
17146;DHT22;8688;54.444;18.444;2023-07-13T04:36:00;16.00;99.90
17146;DHT22;8688;54.444;18.444;2023-07-13T04:38:29;16.10;99.90
17146;DHT22;8688;54.444;18.444;2023-07-13T04:41:01;16.20;99.90
17146;DHT22;8688;54.444;18.444;2023-07-13T04:43:29;16.30;99.90
17146;DHT22;8688;54.444;18.444;2023-07-13T04:46:02;16.40;99.90
17146;DHT22;8688;54.444;18.444;2023-07-13T04:48:31;16.50;99.90
17146;DHT22;8688;54.444;18.444;2023-07-13T04:50:59;16.60;99.90
17146;DHT22;8688;54.444;18.444;2023-07-13T04:53:28;16.60;99.90
17146;DHT22;8688;54.444;18.444;2023-07-13T04:55:56;16.70;99.90
17146;DHT22;8688;54.444;18.444;2023-07-13T04:58:25;16.80;99.90
17146;DHT22;8688;54.444;18.444;2023-07-13T05:00:53;16.90;99.90
17146;DHT22;8688;54.444;18.444;2023-07-13T05:03:21;17.00;99.90
17146;DHT22;8688;54.444;18.444;2023-07-13T05:05:57;17.10;99.90
17146;DHT22;8688;54.444;18.444;2023-07-13T05:08:24;17.20;99.90
17146;DHT22;8688;54.444;18.444;2023-07-13T05:13:22;17.30;99.90
17146;DHT22;8688;54.444;18.444;2023-07-13T05:15:56;17.30;99.90
17146;DHT22;8688;54.444;18.444;2023-07-13T05:18:24;17.40;99.90
17146;DHT22;8688;54.444;18.444;2023-07-13T05:21:01;17.40;99.90
17146;DHT22;8688;54.444;18.444;2023-07-13T05:23:28;17.50;99.90
17146;DHT22;8688;54.444;18.444;2023-07-13T05:25:56;17.50;99.90
17146;DHT22;8688;54.444;18.444;2023-07-13T05:28:24;17.60;99.90
17146;DHT22;8688;54.444;18.444;2023-07-13T05:30:52;17.60;99.90
17146;DHT22;8688;54.444;18.444;2023-07-13T05:33:20;17.70;99.90
17146;DHT22;8688;54.444;18.444;2023-07-13T05:35:47;17.70;99.90
17146;DHT22;8688;54.444;18.444;2023-07-13T05:38:16;17.80;99.90
17146;DHT22;8688;54.444;18.444;2023-07-13T05:43:22;17.90;99.90
17146;DHT22;8688;54.444;18.444;2023-07-13T05:45:52;17.90;99.90
17146;DHT22;8688;54.444;18.444;2023-07-13T05:48:19;17.90;99.90
17146;DHT22;8688;54.444;18.444;2023-07-13T05:50:47;17.90;99.90
17146;DHT22;8688;54.444;18.444;2023-07-13T05:53:16;18.00;99.90
17146;DHT22;8688;54.444;18.444;2023-07-13T05:55:44;18.00;99.90
17146;DHT22;8688;54.444;18.444;2023-07-13T05:58:21;18.10;99.90
17146;DHT22;8688;54.444;18.444;2023-07-13T06:00:48;18.10;54.20
17146;DHT22;8688;54.444;18.444;2023-07-13T06:03:16;18.20;72.50
17146;DHT22;8688;54.444;18.444;2023-07-13T06:05:43;18.30;73.20
17146;DHT22;8688;54.444;18.444;2023-07-13T06:08:11;18.40;23.60
17146;DHT22;8688;54.444;18.444;2023-07-13T06:10:40;18.40;26.20
17146;DHT22;8688;54.444;18.444;2023-07-13T06:13:07;18.40;15.70
17146;DHT22;8688;54.444;18.444;2023-07-13T06:15:35;18.40;1.00
17146;DHT22;8688;54.444;18.444;2023-07-13T06:18:02;18.40;1.00
17146;DHT22;8688;54.444;18.444;2023-07-13T06:20:33;18.50;1.00
17146;DHT22;8688;54.444;18.444;2023-07-13T06:23:01;18.50;1.00
17146;DHT22;8688;54.444;18.444;2023-07-13T06:28:06;18.50;1.00
17146;DHT22;8688;54.444;18.444;2023-07-13T06:30:33;18.60;1.00
17146;DHT22;8688;54.444;18.444;2023-07-13T06:33:01;18.70;1.00
17146;DHT22;8688;54.444;18.444;2023-07-13T06:35:28;18.80;1.00
17146;DHT22;8688;54.444;18.444;2023-07-13T06:37:56;18.90;1.00
17146;DHT22;8688;54.444;18.444;2023-07-13T06:40:23;18.90;1.00
17146;DHT22;8688;54.444;18.444;2023-07-13T06:42:51;19.00;1.00
17146;DHT22;8688;54.444;18.444;2023-07-13T06:45:20;19.10;1.00
17146;DHT22;8688;54.444;18.444;2023-07-13T06:47:47;19.10;1.00
17146;DHT22;8688;54.444;18.444;2023-07-13T06:50:15;19.10;1.00
17146;DHT22;8688;54.444;18.444;2023-07-13T06:52:42;19.20;1.00
17146;DHT22;8688;54.444;18.444;2023-07-13T06:55:10;19.20;1.00
17146;DHT22;8688;54.444;18.444;2023-07-13T06:57:37;19.40;17.00
17146;DHT22;8688;54.444;18.444;2023-07-13T07:02:34;19.50;1.00
17146;DHT22;8688;54.444;18.444;2023-07-13T07:05:02;19.50;7.80
17146;DHT22;8688;54.444;18.444;2023-07-13T07:07:29;19.50;99.90
17146;DHT22;8688;54.444;18.444;2023-07-13T07:09:56;19.50;1.00
17146;DHT22;8688;54.444;18.444;2023-07-13T07:12:24;19.50;1.00
17146;DHT22;8688;54.444;18.444;2023-07-13T07:14:52;19.60;99.90
17146;DHT22;8688;54.444;18.444;2023-07-13T07:17:19;19.80;99.90
17146;DHT22;8688;54.444;18.444;2023-07-13T07:19:48;19.90;55.20
17146;DHT22;8688;54.444;18.444;2023-07-13T07:22:15;19.80;99.00
17146;DHT22;8688;54.444;18.444;2023-07-13T07:24:43;19.80;64.10
17146;DHT22;8688;54.444;18.444;2023-07-13T07:27:10;19.80;99.90
17146;DHT22;8688;54.444;18.444;2023-07-13T07:29:38;19.90;1.00
17146;DHT22;8688;54.444;18.444;2023-07-13T07:32:06;19.90;1.00
17146;DHT22;8688;54.444;18.444;2023-07-13T07:34:33;20.00;1.00
17146;DHT22;8688;54.444;18.444;2023-07-13T07:37:02;20.00;1.00
17146;DHT22;8688;54.444;18.444;2023-07-13T07:39:30;20.00;1.00
17146;DHT22;8688;54.444;18.444;2023-07-13T07:41:58;20.10;37.00
17146;DHT22;8688;54.444;18.444;2023-07-13T07:44:25;20.10;1.00
17146;DHT22;8688;54.444;18.444;2023-07-13T07:46:54;20.10;1.00
17146;DHT22;8688;54.444;18.444;2023-07-13T07:49:21;20.10;76.50
17146;DHT22;8688;54.444;18.444;2023-07-13T07:51:49;20.10;1.00
17146;DHT22;8688;54.444;18.444;2023-07-13T07:54:18;20.10;99.90
17146;DHT22;8688;54.444;18.444;2023-07-13T07:56:45;20.20;1.00
17146;DHT22;8688;54.444;18.444;2023-07-13T07:59:13;20.30;99.90
17146;DHT22;8688;54.444;18.444;2023-07-13T08:01:40;20.50;99.90
17146;DHT22;8688;54.444;18.444;2023-07-13T08:04:09;20.70;12.00
17146;DHT22;8688;54.444;18.444;2023-07-13T08:06:36;20.90;1.00
17146;DHT22;8688;54.444;18.444;2023-07-13T08:09:04;20.90;1.00
17146;DHT22;8688;54.444;18.444;2023-07-13T08:11:33;20.90;58.30
17146;DHT22;8688;54.444;18.444;2023-07-13T08:14:00;20.90;1.00
17146;DHT22;8688;54.444;18.444;2023-07-13T08:16:28;21.00;99.90
17146;DHT22;8688;54.444;18.444;2023-07-13T08:18:55;20.90;1.00
17146;DHT22;8688;54.444;18.444;2023-07-13T08:21:23;20.90;1.00
17146;DHT22;8688;54.444;18.444;2023-07-13T08:23:50;20.90;1.00
17146;DHT22;8688;54.444;18.444;2023-07-13T08:26:18;20.90;1.00
17146;DHT22;8688;54.444;18.444;2023-07-13T08:28:47;20.80;99.90
17146;DHT22;8688;54.444;18.444;2023-07-13T08:31:14;20.80;99.90
17146;DHT22;8688;54.444;18.444;2023-07-13T08:33:42;20.80;1.00
17146;DHT22;8688;54.444;18.444;2023-07-13T08:36:09;21.00;1.00
17146;DHT22;8688;54.444;18.444;2023-07-13T08:38:37;21.20;1.00
17146;DHT22;8688;54.444;18.444;2023-07-13T08:41:11;21.20;25.70
17146;DHT22;8688;54.444;18.444;2023-07-13T08:43:40;21.30;99.90
17146;DHT22;8688;54.444;18.444;2023-07-13T08:46:14;21.30;99.90
17146;DHT22;8688;54.444;18.444;2023-07-13T08:48:47;21.30;99.90
17146;DHT22;8688;54.444;18.444;2023-07-13T08:51:26;21.40;1.00
17146;DHT22;8688;54.444;18.444;2023-07-13T08:53:59;21.40;1.00
17146;DHT22;8688;54.444;18.444;2023-07-13T08:56:29;21.50;1.00
17146;DHT22;8688;54.444;18.444;2023-07-13T08:58:58;21.70;1.00
17146;DHT22;8688;54.444;18.444;2023-07-13T09:01:33;21.90;1.00
17146;DHT22;8688;54.444;18.444;2023-07-13T09:04:06;22.00;1.00
17146;DHT22;8688;54.444;18.444;2023-07-13T09:06:55;22.10;1.00
17146;DHT22;8688;54.444;18.444;2023-07-13T09:09:28;21.90;99.90
17146;DHT22;8688;54.444;18.444;2023-07-13T09:12:05;21.70;1.00
17146;DHT22;8688;54.444;18.444;2023-07-13T09:14:44;21.70;1.00
17146;DHT22;8688;54.444;18.444;2023-07-13T09:17:17;21.80;1.00
17146;DHT22;8688;54.444;18.444;2023-07-13T09:19:49;22.00;1.00
17146;DHT22;8688;54.444;18.444;2023-07-13T09:22:19;22.10;95.30
17146;DHT22;8688;54.444;18.444;2023-07-13T09:24:55;22.20;1.00
17146;DHT22;8688;54.444;18.444;2023-07-13T09:27:30;22.30;99.90
17146;DHT22;8688;54.444;18.444;2023-07-13T09:30:21;22.50;1.00
17146;DHT22;8688;54.444;18.444;2023-07-13T09:32:53;22.80;99.90
17146;DHT22;8688;54.444;18.444;2023-07-13T09:35:25;23.00;99.90
17146;DHT22;8688;54.444;18.444;2023-07-13T09:37:58;23.20;99.90
17146;DHT22;8688;54.444;18.444;2023-07-13T09:40:35;23.10;1.00
17146;DHT22;8688;54.444;18.444;2023-07-13T09:43:05;23.00;99.90
17146;DHT22;8688;54.444;18.444;2023-07-13T09:45:34;23.00;1.00
17146;DHT22;8688;54.444;18.444;2023-07-13T09:48:07;22.80;99.90
17146;DHT22;8688;54.444;18.444;2023-07-13T09:50:38;22.30;17.20
17146;DHT22;8688;54.444;18.444;2023-07-13T09:53:11;22.30;99.90
17146;DHT22;8688;54.444;18.444;2023-07-13T09:55:40;22.00;1.00
17146;DHT22;8688;54.444;18.444;2023-07-13T09:58:11;21.80;99.90
17146;DHT22;8688;54.444;18.444;2023-07-13T10:00:39;21.30;1.00
17146;DHT22;8688;54.444;18.444;2023-07-13T10:03:20;20.80;1.00
17146;DHT22;8688;54.444;18.444;2023-07-13T10:05:49;20.40;1.00
17146;DHT22;8688;54.444;18.444;2023-07-13T10:08:20;20.10;1.00
17146;DHT22;8688;54.444;18.444;2023-07-13T10:10:53;20.00;1.00
17146;DHT22;8688;54.444;18.444;2023-07-13T10:13:31;20.10;49.70
17146;DHT22;8688;54.444;18.444;2023-07-13T10:16:00;19.90;1.00
17146;DHT22;8688;54.444;18.444;2023-07-13T10:18:34;20.00;99.90
17146;DHT22;8688;54.444;18.444;2023-07-13T10:21:13;20.20;1.00
17146;DHT22;8688;54.444;18.444;2023-07-13T10:23:42;20.30;1.00
17146;DHT22;8688;54.444;18.444;2023-07-13T10:26:15;20.30;99.90
17146;DHT22;8688;54.444;18.444;2023-07-13T10:28:46;20.40;99.90
17146;DHT22;8688;54.444;18.444;2023-07-13T10:31:16;20.50;1.00
17146;DHT22;8688;54.444;18.444;2023-07-13T10:33:45;20.60;99.90
17146;DHT22;8688;54.444;18.444;2023-07-13T10:36:18;20.80;99.90
17146;DHT22;8688;54.444;18.444;2023-07-13T10:38:49;20.90;1.00
17146;DHT22;8688;54.444;18.444;2023-07-13T10:41:20;20.80;1.00
17146;DHT22;8688;54.444;18.444;2023-07-13T10:43:51;20.80;1.00
17146;DHT22;8688;54.444;18.444;2023-07-13T10:46:23;20.70;99.90
17146;DHT22;8688;54.444;18.444;2023-07-13T10:48:57;20.70;99.90
17146;DHT22;8688;54.444;18.444;2023-07-13T10:51:26;20.80;1.00
17146;DHT22;8688;54.444;18.444;2023-07-13T10:54:16;20.90;1.00
17146;DHT22;8688;54.444;18.444;2023-07-13T10:56:45;21.00;99.90
17146;DHT22;8688;54.444;18.444;2023-07-13T10:59:16;20.80;1.00
17146;DHT22;8688;54.444;18.444;2023-07-13T11:01:53;20.90;1.00
17146;DHT22;8688;54.444;18.444;2023-07-13T11:04:24;21.10;99.90
17146;DHT22;8688;54.444;18.444;2023-07-13T11:09:34;21.30;29.10
17146;DHT22;8688;54.444;18.444;2023-07-13T11:12:08;21.40;28.20
17146;DHT22;8688;54.444;18.444;2023-07-13T11:14:43;21.50;1.00
17146;DHT22;8688;54.444;18.444;2023-07-13T11:17:33;21.70;1.00
17146;DHT22;8688;54.444;18.444;2023-07-13T11:20:20;21.90;32.10
17146;DHT22;8688;54.444;18.444;2023-07-13T11:22:51;22.10;99.90
17146;DHT22;8688;54.444;18.444;2023-07-13T11:25:26;22.30;99.90
17146;DHT22;8688;54.444;18.444;2023-07-13T11:30:49;22.30;1.00
17146;DHT22;8688;54.444;18.444;2023-07-13T11:33:19;22.30;90.20
17146;DHT22;8688;54.444;18.444;2023-07-13T11:35:53;22.20;1.00
17146;DHT22;8688;54.444;18.444;2023-07-13T11:38:30;22.10;1.00
17146;DHT22;8688;54.444;18.444;2023-07-13T11:41:02;22.00;1.00
17146;DHT22;8688;54.444;18.444;2023-07-13T11:43:30;22.00;1.00
17146;DHT22;8688;54.444;18.444;2023-07-13T11:46:12;22.20;1.00
17146;DHT22;8688;54.444;18.444;2023-07-13T11:48:40;22.40;1.00
17146;DHT22;8688;54.444;18.444;2023-07-13T11:51:18;22.70;99.90
17146;DHT22;8688;54.444;18.444;2023-07-13T11:53:49;22.80;1.00
17146;DHT22;8688;54.444;18.444;2023-07-13T11:56:17;22.80;1.00
17146;DHT22;8688;54.444;18.444;2023-07-13T11:58:49;22.60;99.90
17146;DHT22;8688;54.444;18.444;2023-07-13T12:01:20;22.50;99.90
17146;DHT22;8688;54.444;18.444;2023-07-13T12:03:49;22.30;99.90
17146;DHT22;8688;54.444;18.444;2023-07-13T12:06:28;22.10;99.90
17146;DHT22;8688;54.444;18.444;2023-07-13T12:08:59;22.00;6.30
17146;DHT22;8688;54.444;18.444;2023-07-13T12:11:30;21.90;99.90
17146;DHT22;8688;54.444;18.444;2023-07-13T12:13:58;22.00;92.70
17146;DHT22;8688;54.444;18.444;2023-07-13T12:16:29;22.10;99.90
17146;DHT22;8688;54.444;18.444;2023-07-13T12:18:59;22.20;99.90
17146;DHT22;8688;54.444;18.444;2023-07-13T12:21:34;22.30;99.90
17146;DHT22;8688;54.444;18.444;2023-07-13T12:24:02;22.20;1.00
17146;DHT22;8688;54.444;18.444;2023-07-13T12:26:30;22.10;1.00
17146;DHT22;8688;54.444;18.444;2023-07-13T12:29:00;22.10;1.00
17146;DHT22;8688;54.444;18.444;2023-07-13T12:31:35;22.30;1.00
17146;DHT22;8688;54.444;18.444;2023-07-13T12:34:08;22.70;1.00
17146;DHT22;8688;54.444;18.444;2023-07-13T12:36:41;23.00;1.00
17146;DHT22;8688;54.444;18.444;2023-07-13T12:39:16;22.80;1.00
17146;DHT22;8688;54.444;18.444;2023-07-13T12:41:44;22.40;99.90
17146;DHT22;8688;54.444;18.444;2023-07-13T12:44:14;22.10;1.00
17146;DHT22;8688;54.444;18.444;2023-07-13T12:46:54;21.70;99.90
17146;DHT22;8688;54.444;18.444;2023-07-13T12:49:26;21.50;99.90
17146;DHT22;8688;54.444;18.444;2023-07-13T12:52:01;21.40;1.00
17146;DHT22;8688;54.444;18.444;2023-07-13T12:54:31;21.40;1.00
17146;DHT22;8688;54.444;18.444;2023-07-13T12:57:07;21.30;99.90
17146;DHT22;8688;54.444;18.444;2023-07-13T12:59:38;21.40;99.90
17146;DHT22;8688;54.444;18.444;2023-07-13T13:02:23;21.50;99.90
17146;DHT22;8688;54.444;18.444;2023-07-13T13:04:55;21.50;99.90
17146;DHT22;8688;54.444;18.444;2023-07-13T13:07:29;22.00;53.90
17146;DHT22;8688;54.444;18.444;2023-07-13T13:09:58;22.40;99.90
17146;DHT22;8688;54.444;18.444;2023-07-13T13:12:26;22.90;99.90
17146;DHT22;8688;54.444;18.444;2023-07-13T13:14:55;23.10;1.00
17146;DHT22;8688;54.444;18.444;2023-07-13T13:17:29;22.60;1.00
17146;DHT22;8688;54.444;18.444;2023-07-13T13:19:58;22.20;1.00
17146;DHT22;8688;54.444;18.444;2023-07-13T13:22:27;22.10;1.00
17146;DHT22;8688;54.444;18.444;2023-07-13T13:24:55;22.50;1.00
17146;DHT22;8688;54.444;18.444;2023-07-13T13:27:23;22.80;1.00
17146;DHT22;8688;54.444;18.444;2023-07-13T13:29:51;23.10;1.00
17146;DHT22;8688;54.444;18.444;2023-07-13T13:32:19;23.40;99.90
17146;DHT22;8688;54.444;18.444;2023-07-13T13:34:46;23.20;1.00
17146;DHT22;8688;54.444;18.444;2023-07-13T13:37:19;23.00;1.00
17146;DHT22;8688;54.444;18.444;2023-07-13T13:39:49;22.60;1.00
17146;DHT22;8688;54.444;18.444;2023-07-13T13:42:17;22.30;99.90
17146;DHT22;8688;54.444;18.444;2023-07-13T13:44:47;22.10;99.90
17146;DHT22;8688;54.444;18.444;2023-07-13T13:47:26;21.90;1.00
17146;DHT22;8688;54.444;18.444;2023-07-13T13:49:55;21.90;99.90
17146;DHT22;8688;54.444;18.444;2023-07-13T13:52:24;21.90;99.90
17146;DHT22;8688;54.444;18.444;2023-07-13T13:54:53;22.40;1.00
17146;DHT22;8688;54.444;18.444;2023-07-13T13:57:23;22.60;1.00
17146;DHT22;8688;54.444;18.444;2023-07-13T13:59:51;22.50;1.00
17146;DHT22;8688;54.444;18.444;2023-07-13T14:02:25;22.50;99.90
17146;DHT22;8688;54.444;18.444;2023-07-13T14:04:56;22.80;99.90
17146;DHT22;8688;54.444;18.444;2023-07-13T14:07:25;23.00;1.00
17146;DHT22;8688;54.444;18.444;2023-07-13T14:09:57;22.70;1.00
17146;DHT22;8688;54.444;18.444;2023-07-13T14:12:26;22.50;99.90
17146;DHT22;8688;54.444;18.444;2023-07-13T14:14:54;22.50;99.90
17146;DHT22;8688;54.444;18.444;2023-07-13T14:17:25;22.40;99.90
17146;DHT22;8688;54.444;18.444;2023-07-13T14:19:53;22.30;99.90
17146;DHT22;8688;54.444;18.444;2023-07-13T14:22:23;22.10;1.00
17146;DHT22;8688;54.444;18.444;2023-07-13T14:24:55;21.60;99.90
17146;DHT22;8688;54.444;18.444;2023-07-13T14:27:25;21.40;1.00
17146;DHT22;8688;54.444;18.444;2023-07-13T14:29:52;21.10;94.60
17146;DHT22;8688;54.444;18.444;2023-07-13T14:32:20;20.90;65.90
17146;DHT22;8688;54.444;18.444;2023-07-13T14:34:47;20.70;99.90
17146;DHT22;8688;54.444;18.444;2023-07-13T14:37:15;20.40;1.00
17146;DHT22;8688;54.444;18.444;2023-07-13T14:39:44;20.30;1.00
17146;DHT22;8688;54.444;18.444;2023-07-13T14:42:16;20.40;99.90
17146;DHT22;8688;54.444;18.444;2023-07-13T14:44:44;20.50;1.00
17146;DHT22;8688;54.444;18.444;2023-07-13T14:47:12;20.30;1.00
17146;DHT22;8688;54.444;18.444;2023-07-13T14:49:42;20.30;37.10
17146;DHT22;8688;54.444;18.444;2023-07-13T14:52:18;20.30;99.90
17146;DHT22;8688;54.444;18.444;2023-07-13T14:54:48;20.30;99.90
17146;DHT22;8688;54.444;18.444;2023-07-13T14:57:19;20.40;99.90
17146;DHT22;8688;54.444;18.444;2023-07-13T14:59:53;20.50;1.00
17146;DHT22;8688;54.444;18.444;2023-07-13T15:02:32;21.00;1.00
17146;DHT22;8688;54.444;18.444;2023-07-13T15:05:08;21.40;99.90
17146;DHT22;8688;54.444;18.444;2023-07-13T15:07:43;21.50;99.90
17146;DHT22;8688;54.444;18.444;2023-07-13T15:10:19;21.60;99.90
17146;DHT22;8688;54.444;18.444;2023-07-13T15:12:50;21.80;1.00
17146;DHT22;8688;54.444;18.444;2023-07-13T15:15:18;22.10;1.00
17146;DHT22;8688;54.444;18.444;2023-07-13T15:17:52;22.10;99.90
17146;DHT22;8688;54.444;18.444;2023-07-13T15:20:34;22.10;1.00
17146;DHT22;8688;54.444;18.444;2023-07-13T15:23:02;22.10;99.90
17146;DHT22;8688;54.444;18.444;2023-07-13T15:25:33;22.10;99.90
17146;DHT22;8688;54.444;18.444;2023-07-13T15:28:05;22.00;99.90
17146;DHT22;8688;54.444;18.444;2023-07-13T15:30:36;22.20;99.90
17146;DHT22;8688;54.444;18.444;2023-07-13T15:33:13;22.30;99.90
17146;DHT22;8688;54.444;18.444;2023-07-13T15:35:46;22.50;99.90
17146;DHT22;8688;54.444;18.444;2023-07-13T15:38:19;22.70;1.00
17146;DHT22;8688;54.444;18.444;2023-07-13T15:40:52;23.30;99.90
17146;DHT22;8688;54.444;18.444;2023-07-13T15:43:26;23.80;1.00
17146;DHT22;8688;54.444;18.444;2023-07-13T15:45:54;23.60;99.90
17146;DHT22;8688;54.444;18.444;2023-07-13T15:48:23;23.70;99.90
17146;DHT22;8688;54.444;18.444;2023-07-13T15:51:19;23.80;1.00
17146;DHT22;8688;54.444;18.444;2023-07-13T15:53:48;23.50;99.90
17146;DHT22;8688;54.444;18.444;2023-07-13T15:56:19;23.80;1.00
17146;DHT22;8688;54.444;18.444;2023-07-13T15:58:50;24.00;99.90
17146;DHT22;8688;54.444;18.444;2023-07-13T16:01:26;24.10;99.90
17146;DHT22;8688;54.444;18.444;2023-07-13T16:04:02;24.10;1.00
17146;DHT22;8688;54.444;18.444;2023-07-13T16:06:34;24.10;1.00
17146;DHT22;8688;54.444;18.444;2023-07-13T16:09:06;24.40;16.40